sensor_id;sensor_type;location;lat;lon;timestamp;P1;durP1;ratioP1;P2;durP2;ratioP2
1691;SDS011;843;52.054;8.552;2022-07-29T00:00:03;2.20;;;1.27;;
1691;SDS011;843;52.054;8.552;2022-07-29T00:02:31;3.00;;;1.40;;
1691;SDS011;843;52.054;8.552;2022-07-29T00:04:59;7.70;;;1.40;;
1691;SDS011;843;52.054;8.552;2022-07-29T00:07:27;4.10;;;1.77;;
1691;SDS011;843;52.054;8.552;2022-07-29T00:09:54;6.53;;;1.70;;
1691;SDS011;843;52.054;8.552;2022-07-29T00:12:23;2.37;;;1.10;;
1691;SDS011;843;52.054;8.552;2022-07-29T00:14:51;3.40;;;1.60;;
1691;SDS011;843;52.054;8.552;2022-07-29T00:17:18;4.70;;;1.60;;
1691;SDS011;843;52.054;8.552;2022-07-29T00:19:44;3.97;;;1.63;;
1691;SDS011;843;52.054;8.552;2022-07-29T00:22:13;4.67;;;1.47;;
1691;SDS011;843;52.054;8.552;2022-07-29T00:24:39;2.20;;;1.33;;
1691;SDS011;843;52.054;8.552;2022-07-29T00:27:06;3.03;;;1.43;;
1691;SDS011;843;52.054;8.552;2022-07-29T00:29:33;2.23;;;1.30;;
1691;SDS011;843;52.054;8.552;2022-07-29T00:31:59;3.47;;;1.17;;
1691;SDS011;843;52.054;8.552;2022-07-29T00:34:26;5.63;;;1.63;;
1691;SDS011;843;52.054;8.552;2022-07-29T00:37:10;3.63;;;1.90;;
1691;SDS011;843;52.054;8.552;2022-07-29T00:39:38;6.20;;;2.10;;
1691;SDS011;843;52.054;8.552;2022-07-29T00:42:05;3.30;;;1.40;;
1691;SDS011;843;52.054;8.552;2022-07-29T00:44:35;4.53;;;1.80;;
1691;SDS011;843;52.054;8.552;2022-07-29T00:47:03;4.70;;;1.70;;
1691;SDS011;843;52.054;8.552;2022-07-29T00:49:29;3.43;;;2.00;;
1691;SDS011;843;52.054;8.552;2022-07-29T00:51:57;4.33;;;1.50;;
1691;SDS011;843;52.054;8.552;2022-07-29T00:54:23;6.60;;;1.43;;
1691;SDS011;843;52.054;8.552;2022-07-29T00:56:53;3.63;;;1.50;;
1691;SDS011;843;52.054;8.552;2022-07-29T00:59:20;2.50;;;1.67;;
1691;SDS011;843;52.054;8.552;2022-07-29T01:01:46;2.60;;;1.43;;
1691;SDS011;843;52.054;8.552;2022-07-29T01:04:13;3.93;;;1.40;;
1691;SDS011;843;52.054;8.552;2022-07-29T01:06:40;3.50;;;1.70;;
1691;SDS011;843;52.054;8.552;2022-07-29T01:09:07;2.53;;;1.30;;
1691;SDS011;843;52.054;8.552;2022-07-29T01:11:34;3.43;;;1.50;;
1691;SDS011;843;52.054;8.552;2022-07-29T01:14:02;1.97;;;1.47;;
1691;SDS011;843;52.054;8.552;2022-07-29T01:16:30;3.53;;;1.40;;
1691;SDS011;843;52.054;8.552;2022-07-29T01:19:00;2.43;;;1.70;;
1691;SDS011;843;52.054;8.552;2022-07-29T01:21:38;1.87;;;1.40;;
1691;SDS011;843;52.054;8.552;2022-07-29T01:24:29;3.00;;;1.40;;
1691;SDS011;843;52.054;8.552;2022-07-29T01:27:04;2.03;;;1.30;;
1691;SDS011;843;52.054;8.552;2022-07-29T01:29:41;5.77;;;1.67;;
1691;SDS011;843;52.054;8.552;2022-07-29T01:32:11;2.50;;;1.67;;
1691;SDS011;843;52.054;8.552;2022-07-29T01:34:47;3.80;;;1.23;;
1691;SDS011;843;52.054;8.552;2022-07-29T01:37:18;6.00;;;1.63;;
1691;SDS011;843;52.054;8.552;2022-07-29T01:39:46;3.43;;;1.27;;
1691;SDS011;843;52.054;8.552;2022-07-29T01:42:15;3.43;;;1.53;;
1691;SDS011;843;52.054;8.552;2022-07-29T01:44:50;3.93;;;1.60;;
1691;SDS011;843;52.054;8.552;2022-07-29T01:47:23;7.33;;;1.80;;
1691;SDS011;843;52.054;8.552;2022-07-29T01:50:00;6.60;;;1.93;;
1691;SDS011;843;52.054;8.552;2022-07-29T01:52:29;2.73;;;2.00;;
1691;SDS011;843;52.054;8.552;2022-07-29T01:54:59;3.33;;;2.20;;
1691;SDS011;843;52.054;8.552;2022-07-29T01:57:30;2.23;;;1.27;;
1691;SDS011;843;52.054;8.552;2022-07-29T01:59:59;4.63;;;1.43;;
1691;SDS011;843;52.054;8.552;2022-07-29T02:02:28;2.83;;;1.40;;
1691;SDS011;843;52.054;8.552;2022-07-29T02:04:55;3.10;;;1.40;;
1691;SDS011;843;52.054;8.552;2022-07-29T02:07:23;4.30;;;1.57;;
1691;SDS011;843;52.054;8.552;2022-07-29T02:09:51;6.83;;;1.87;;
1691;SDS011;843;52.054;8.552;2022-07-29T02:12:19;4.37;;;2.07;;
1691;SDS011;843;52.054;8.552;2022-07-29T02:14:47;3.50;;;1.63;;
1691;SDS011;843;52.054;8.552;2022-07-29T02:17:20;3.27;;;1.50;;
1691;SDS011;843;52.054;8.552;2022-07-29T02:19:48;2.10;;;1.37;;
1691;SDS011;843;52.054;8.552;2022-07-29T02:22:16;4.60;;;1.80;;
1691;SDS011;843;52.054;8.552;2022-07-29T02:24:44;4.83;;;1.80;;
1691;SDS011;843;52.054;8.552;2022-07-29T02:27:12;3.80;;;1.10;;
1691;SDS011;843;52.054;8.552;2022-07-29T02:29:40;2.23;;;1.73;;
1691;SDS011;843;52.054;8.552;2022-07-29T02:32:08;2.90;;;1.93;;
1691;SDS011;843;52.054;8.552;2022-07-29T02:34:37;4.60;;;1.57;;
1691;SDS011;843;52.054;8.552;2022-07-29T02:37:04;4.30;;;1.30;;
1691;SDS011;843;52.054;8.552;2022-07-29T02:39:31;4.33;;;1.47;;
1691;SDS011;843;52.054;8.552;2022-07-29T02:41:59;3.77;;;1.60;;
1691;SDS011;843;52.054;8.552;2022-07-29T02:44:28;4.83;;;1.93;;
1691;SDS011;843;52.054;8.552;2022-07-29T02:46:59;2.90;;;1.60;;
1691;SDS011;843;52.054;8.552;2022-07-29T02:49:32;2.47;;;1.87;;
1691;SDS011;843;52.054;8.552;2022-07-29T02:52:04;2.00;;;1.47;;
1691;SDS011;843;52.054;8.552;2022-07-29T02:54:37;4.10;;;1.53;;
1691;SDS011;843;52.054;8.552;2022-07-29T02:57:06;2.93;;;1.60;;
1691;SDS011;843;52.054;8.552;2022-07-29T02:59:37;3.07;;;1.50;;
1691;SDS011;843;52.054;8.552;2022-07-29T03:02:07;4.57;;;2.00;;
1691;SDS011;843;52.054;8.552;2022-07-29T03:04:34;3.80;;;1.63;;
1691;SDS011;843;52.054;8.552;2022-07-29T03:07:03;3.83;;;1.50;;
1691;SDS011;843;52.054;8.552;2022-07-29T03:09:31;3.67;;;1.77;;
1691;SDS011;843;52.054;8.552;2022-07-29T03:11:57;3.70;;;1.40;;
1691;SDS011;843;52.054;8.552;2022-07-29T03:14:25;6.67;;;1.73;;
1691;SDS011;843;52.054;8.552;2022-07-29T03:16:52;3.30;;;1.57;;
1691;SDS011;843;52.054;8.552;2022-07-29T03:19:19;2.93;;;1.57;;
1691;SDS011;843;52.054;8.552;2022-07-29T03:21:46;4.43;;;1.73;;
1691;SDS011;843;52.054;8.552;2022-07-29T03:24:25;3.10;;;2.20;;
1691;SDS011;843;52.054;8.552;2022-07-29T03:26:53;2.83;;;1.30;;
1691;SDS011;843;52.054;8.552;2022-07-29T03:29:21;5.87;;;1.77;;
1691;SDS011;843;52.054;8.552;2022-07-29T03:31:47;5.20;;;1.57;;
1691;SDS011;843;52.054;8.552;2022-07-29T03:34:14;8.40;;;2.00;;
1691;SDS011;843;52.054;8.552;2022-07-29T03:36:41;2.63;;;1.93;;
1691;SDS011;843;52.054;8.552;2022-07-29T03:39:09;2.63;;;1.50;;
1691;SDS011;843;52.054;8.552;2022-07-29T03:41:38;3.20;;;1.90;;
1691;SDS011;843;52.054;8.552;2022-07-29T03:44:06;9.00;;;1.77;;
1691;SDS011;843;52.054;8.552;2022-07-29T03:46:34;3.77;;;1.77;;
1691;SDS011;843;52.054;8.552;2022-07-29T03:49:02;3.20;;;1.60;;
1691;SDS011;843;52.054;8.552;2022-07-29T03:51:30;2.20;;;1.43;;
1691;SDS011;843;52.054;8.552;2022-07-29T03:53:57;3.47;;;1.43;;
1691;SDS011;843;52.054;8.552;2022-07-29T03:56:23;5.43;;;1.50;;
1691;SDS011;843;52.054;8.552;2022-07-29T03:58:52;4.50;;;1.93;;
1691;SDS011;843;52.054;8.552;2022-07-29T04:01:19;2.70;;;1.73;;
1691;SDS011;843;52.054;8.552;2022-07-29T04:03:46;3.83;;;1.77;;
1691;SDS011;843;52.054;8.552;2022-07-29T04:06:13;3.07;;;1.53;;
1691;SDS011;843;52.054;8.552;2022-07-29T04:08:40;3.53;;;1.80;;
1691;SDS011;843;52.054;8.552;2022-07-29T04:11:07;2.33;;;1.70;;
1691;SDS011;843;52.054;8.552;2022-07-29T04:13:34;3.50;;;1.90;;
1691;SDS011;843;52.054;8.552;2022-07-29T04:16:03;2.67;;;1.73;;
1691;SDS011;843;52.054;8.552;2022-07-29T04:18:30;4.57;;;2.17;;
1691;SDS011;843;52.054;8.552;2022-07-29T04:20:57;5.10;;;1.83;;
1691;SDS011;843;52.054;8.552;2022-07-29T04:23:25;3.33;;;1.67;;
1691;SDS011;843;52.054;8.552;2022-07-29T04:25:52;1.77;;;1.50;;
1691;SDS011;843;52.054;8.552;2022-07-29T04:28:19;5.00;;;1.87;;
1691;SDS011;843;52.054;8.552;2022-07-29T04:30:47;1.80;;;1.40;;
1691;SDS011;843;52.054;8.552;2022-07-29T04:33:15;3.40;;;1.93;;
1691;SDS011;843;52.054;8.552;2022-07-29T04:35:42;6.03;;;2.57;;
1691;SDS011;843;52.054;8.552;2022-07-29T04:38:09;3.30;;;2.33;;
1691;SDS011;843;52.054;8.552;2022-07-29T04:40:36;6.53;;;2.20;;
1691;SDS011;843;52.054;8.552;2022-07-29T04:43:03;2.50;;;1.70;;
1691;SDS011;843;52.054;8.552;2022-07-29T04:45:30;2.20;;;1.63;;
1691;SDS011;843;52.054;8.552;2022-07-29T04:47:57;5.53;;;1.93;;
1691;SDS011;843;52.054;8.552;2022-07-29T04:50:25;5.40;;;2.07;;
1691;SDS011;843;52.054;8.552;2022-07-29T04:52:52;5.83;;;1.80;;
1691;SDS011;843;52.054;8.552;2022-07-29T04:55:19;6.00;;;2.30;;
1691;SDS011;843;52.054;8.552;2022-07-29T04:57:45;3.17;;;2.00;;
1691;SDS011;843;52.054;8.552;2022-07-29T05:00:12;5.73;;;1.90;;
1691;SDS011;843;52.054;8.552;2022-07-29T05:02:40;2.70;;;2.23;;
1691;SDS011;843;52.054;8.552;2022-07-29T05:05:07;5.07;;;2.10;;
1691;SDS011;843;52.054;8.552;2022-07-29T05:07:35;6.37;;;2.13;;
1691;SDS011;843;52.054;8.552;2022-07-29T05:10:02;4.73;;;2.00;;
1691;SDS011;843;52.054;8.552;2022-07-29T05:12:30;5.13;;;3.00;;
1691;SDS011;843;52.054;8.552;2022-07-29T05:14:57;4.27;;;2.53;;
1691;SDS011;843;52.054;8.552;2022-07-29T05:17:23;5.50;;;1.73;;
1691;SDS011;843;52.054;8.552;2022-07-29T05:19:50;4.97;;;2.67;;
1691;SDS011;843;52.054;8.552;2022-07-29T05:22:17;4.80;;;1.37;;
1691;SDS011;843;52.054;8.552;2022-07-29T05:24:46;3.30;;;1.70;;
1691;SDS011;843;52.054;8.552;2022-07-29T05:27:13;5.97;;;2.00;;
1691;SDS011;843;52.054;8.552;2022-07-29T05:29:40;3.83;;;1.60;;
1691;SDS011;843;52.054;8.552;2022-07-29T05:32:07;4.30;;;1.63;;
1691;SDS011;843;52.054;8.552;2022-07-29T05:34:34;2.63;;;1.70;;
1691;SDS011;843;52.054;8.552;2022-07-29T05:37:00;4.53;;;1.87;;
1691;SDS011;843;52.054;8.552;2022-07-29T05:39:27;4.33;;;2.17;;
1691;SDS011;843;52.054;8.552;2022-07-29T05:41:55;4.33;;;1.70;;
1691;SDS011;843;52.054;8.552;2022-07-29T05:44:22;2.50;;;1.53;;
1691;SDS011;843;52.054;8.552;2022-07-29T05:46:49;4.40;;;1.77;;
1691;SDS011;843;52.054;8.552;2022-07-29T05:49:16;3.97;;;1.63;;
1691;SDS011;843;52.054;8.552;2022-07-29T05:51:42;4.77;;;1.70;;
1691;SDS011;843;52.054;8.552;2022-07-29T05:54:09;10.73;;;2.63;;
1691;SDS011;843;52.054;8.552;2022-07-29T05:56:36;4.70;;;1.50;;
1691;SDS011;843;52.054;8.552;2022-07-29T05:59:04;5.60;;;1.80;;
1691;SDS011;843;52.054;8.552;2022-07-29T06:01:31;6.43;;;1.97;;
1691;SDS011;843;52.054;8.552;2022-07-29T06:03:58;6.53;;;1.90;;
1691;SDS011;843;52.054;8.552;2022-07-29T06:06:24;3.70;;;2.00;;
1691;SDS011;843;52.054;8.552;2022-07-29T06:08:51;4.93;;;1.90;;
1691;SDS011;843;52.054;8.552;2022-07-29T06:11:18;4.37;;;2.20;;
1691;SDS011;843;52.054;8.552;2022-07-29T06:13:45;3.80;;;1.77;;
1691;SDS011;843;52.054;8.552;2022-07-29T06:16:13;3.70;;;1.80;;
1691;SDS011;843;52.054;8.552;2022-07-29T06:18:40;4.50;;;2.00;;
1691;SDS011;843;52.054;8.552;2022-07-29T06:21:07;7.23;;;2.10;;
1691;SDS011;843;52.054;8.552;2022-07-29T06:23:36;8.20;;;1.90;;
1691;SDS011;843;52.054;8.552;2022-07-29T06:26:03;7.30;;;1.80;;
1691;SDS011;843;52.054;8.552;2022-07-29T06:28:30;3.03;;;1.50;;
1691;SDS011;843;52.054;8.552;2022-07-29T06:30:57;6.60;;;2.10;;
1691;SDS011;843;52.054;8.552;2022-07-29T06:33:25;5.23;;;1.60;;
1691;SDS011;843;52.054;8.552;2022-07-29T06:35:52;3.60;;;1.63;;
1691;SDS011;843;52.054;8.552;2022-07-29T06:38:19;3.33;;;1.63;;
1691;SDS011;843;52.054;8.552;2022-07-29T06:40:47;3.40;;;1.57;;
1691;SDS011;843;52.054;8.552;2022-07-29T06:43:27;3.90;;;1.93;;
1691;SDS011;843;52.054;8.552;2022-07-29T06:45:57;6.33;;;1.80;;
1691;SDS011;843;52.054;8.552;2022-07-29T06:48:28;2.47;;;1.60;;
1691;SDS011;843;52.054;8.552;2022-07-29T06:50:55;7.07;;;1.93;;
1691;SDS011;843;52.054;8.552;2022-07-29T06:53:22;7.10;;;2.30;;
1691;SDS011;843;52.054;8.552;2022-07-29T06:55:49;4.13;;;1.50;;
1691;SDS011;843;52.054;8.552;2022-07-29T06:58:16;4.07;;;1.90;;
1691;SDS011;843;52.054;8.552;2022-07-29T07:00:45;5.60;;;1.90;;
1691;SDS011;843;52.054;8.552;2022-07-29T07:03:12;3.37;;;1.93;;
1691;SDS011;843;52.054;8.552;2022-07-29T07:05:41;3.57;;;1.60;;
1691;SDS011;843;52.054;8.552;2022-07-29T07:08:08;5.20;;;2.07;;
1691;SDS011;843;52.054;8.552;2022-07-29T07:10:34;3.63;;;1.67;;
1691;SDS011;843;52.054;8.552;2022-07-29T07:13:01;6.03;;;1.80;;
1691;SDS011;843;52.054;8.552;2022-07-29T07:15:28;3.97;;;1.80;;
1691;SDS011;843;52.054;8.552;2022-07-29T07:17:55;9.23;;;2.00;;
1691;SDS011;843;52.054;8.552;2022-07-29T07:20:22;5.63;;;1.60;;
1691;SDS011;843;52.054;8.552;2022-07-29T07:22:50;3.70;;;1.60;;
1691;SDS011;843;52.054;8.552;2022-07-29T07:25:17;5.10;;;1.73;;
1691;SDS011;843;52.054;8.552;2022-07-29T07:27:44;4.53;;;1.40;;
1691;SDS011;843;52.054;8.552;2022-07-29T07:30:11;5.60;;;1.90;;
1691;SDS011;843;52.054;8.552;2022-07-29T07:32:39;3.77;;;1.80;;
1691;SDS011;843;52.054;8.552;2022-07-29T07:35:06;4.97;;;1.43;;
1691;SDS011;843;52.054;8.552;2022-07-29T07:37:34;3.60;;;1.50;;
1691;SDS011;843;52.054;8.552;2022-07-29T07:40:03;3.30;;;1.50;;
1691;SDS011;843;52.054;8.552;2022-07-29T07:42:31;4.93;;;1.60;;
1691;SDS011;843;52.054;8.552;2022-07-29T07:44:58;4.00;;;1.57;;
1691;SDS011;843;52.054;8.552;2022-07-29T07:47:24;7.57;;;1.97;;
1691;SDS011;843;52.054;8.552;2022-07-29T07:49:51;6.40;;;2.07;;
1691;SDS011;843;52.054;8.552;2022-07-29T07:52:19;5.00;;;1.67;;
1691;SDS011;843;52.054;8.552;2022-07-29T07:54:47;2.40;;;1.40;;
1691;SDS011;843;52.054;8.552;2022-07-29T07:57:16;6.80;;;1.50;;
1691;SDS011;843;52.054;8.552;2022-07-29T07:59:43;4.43;;;1.70;;
1691;SDS011;843;52.054;8.552;2022-07-29T08:02:09;7.30;;;2.00;;
1691;SDS011;843;52.054;8.552;2022-07-29T08:04:36;6.43;;;1.80;;
1691;SDS011;843;52.054;8.552;2022-07-29T08:07:05;4.00;;;1.73;;
1691;SDS011;843;52.054;8.552;2022-07-29T08:09:32;3.53;;;1.20;;
1691;SDS011;843;52.054;8.552;2022-07-29T08:11:59;4.87;;;1.40;;
1691;SDS011;843;52.054;8.552;2022-07-29T08:14:30;7.47;;;2.00;;
1691;SDS011;843;52.054;8.552;2022-07-29T08:16:56;4.83;;;1.70;;
1691;SDS011;843;52.054;8.552;2022-07-29T08:19:23;4.50;;;1.83;;
1691;SDS011;843;52.054;8.552;2022-07-29T08:21:50;4.07;;;1.70;;
1691;SDS011;843;52.054;8.552;2022-07-29T08:24:18;4.90;;;1.60;;
1691;SDS011;843;52.054;8.552;2022-07-29T08:27:02;7.40;;;2.43;;
1691;SDS011;843;52.054;8.552;2022-07-29T08:29:30;2.97;;;1.73;;
1691;SDS011;843;52.054;8.552;2022-07-29T08:31:57;4.83;;;1.47;;
1691;SDS011;843;52.054;8.552;2022-07-29T08:34:24;3.27;;;1.50;;
1691;SDS011;843;52.054;8.552;2022-07-29T08:36:51;4.63;;;1.80;;
1691;SDS011;843;52.054;8.552;2022-07-29T08:39:17;4.90;;;1.87;;
1691;SDS011;843;52.054;8.552;2022-07-29T08:41:44;3.90;;;1.50;;
1691;SDS011;843;52.054;8.552;2022-07-29T08:44:12;5.30;;;1.40;;
1691;SDS011;843;52.054;8.552;2022-07-29T08:46:40;6.40;;;1.57;;
1691;SDS011;843;52.054;8.552;2022-07-29T08:49:07;8.20;;;1.60;;
1691;SDS011;843;52.054;8.552;2022-07-29T08:51:34;5.97;;;1.40;;
1691;SDS011;843;52.054;8.552;2022-07-29T08:54:02;2.53;;;1.70;;
1691;SDS011;843;52.054;8.552;2022-07-29T08:56:29;1.80;;;1.40;;
1691;SDS011;843;52.054;8.552;2022-07-29T08:58:56;4.13;;;1.77;;
1691;SDS011;843;52.054;8.552;2022-07-29T09:01:25;3.63;;;2.00;;
1691;SDS011;843;52.054;8.552;2022-07-29T09:03:56;6.70;;;1.70;;
1691;SDS011;843;52.054;8.552;2022-07-29T09:06:23;5.63;;;1.57;;
1691;SDS011;843;52.054;8.552;2022-07-29T09:08:52;5.37;;;2.00;;
1691;SDS011;843;52.054;8.552;2022-07-29T09:11:20;3.87;;;1.60;;
1691;SDS011;843;52.054;8.552;2022-07-29T09:13:47;7.63;;;1.83;;
1691;SDS011;843;52.054;8.552;2022-07-29T09:16:14;4.70;;;1.53;;
1691;SDS011;843;52.054;8.552;2022-07-29T09:18:42;3.80;;;1.40;;
1691;SDS011;843;52.054;8.552;2022-07-29T09:21:11;2.40;;;1.13;;
1691;SDS011;843;52.054;8.552;2022-07-29T09:24:04;4.13;;;1.17;;
1691;SDS011;843;52.054;8.552;2022-07-29T09:26:33;3.80;;;1.70;;
1691;SDS011;843;52.054;8.552;2022-07-29T09:29:07;3.47;;;1.67;;
1691;SDS011;843;52.054;8.552;2022-07-29T09:31:37;5.90;;;1.60;;
1691;SDS011;843;52.054;8.552;2022-07-29T09:34:05;3.70;;;1.47;;
1691;SDS011;843;52.054;8.552;2022-07-29T09:36:39;4.50;;;1.60;;
1691;SDS011;843;52.054;8.552;2022-07-29T09:39:07;5.47;;;1.50;;
1691;SDS011;843;52.054;8.552;2022-07-29T09:41:46;3.73;;;1.50;;
1691;SDS011;843;52.054;8.552;2022-07-29T09:44:14;2.73;;;1.80;;
1691;SDS011;843;52.054;8.552;2022-07-29T09:46:52;3.40;;;1.30;;
1691;SDS011;843;52.054;8.552;2022-07-29T09:49:22;3.97;;;2.07;;
1691;SDS011;843;52.054;8.552;2022-07-29T09:51:59;2.20;;;1.50;;
1691;SDS011;843;52.054;8.552;2022-07-29T09:54:27;4.97;;;2.17;;
1691;SDS011;843;52.054;8.552;2022-07-29T09:56:55;3.33;;;1.90;;
1691;SDS011;843;52.054;8.552;2022-07-29T09:59:21;4.20;;;2.27;;
1691;SDS011;843;52.054;8.552;2022-07-29T10:01:51;4.63;;;1.80;;
1691;SDS011;843;52.054;8.552;2022-07-29T10:04:18;4.30;;;2.10;;
1691;SDS011;843;52.054;8.552;2022-07-29T10:06:55;3.67;;;2.17;;
1691;SDS011;843;52.054;8.552;2022-07-29T10:09:25;5.30;;;2.10;;
1691;SDS011;843;52.054;8.552;2022-07-29T10:12:05;5.10;;;2.00;;
1691;SDS011;843;52.054;8.552;2022-07-29T10:14:34;2.57;;;1.50;;
1691;SDS011;843;52.054;8.552;2022-07-29T10:17:01;4.07;;;1.83;;
1691;SDS011;843;52.054;8.552;2022-07-29T10:19:29;5.53;;;2.10;;
1691;SDS011;843;52.054;8.552;2022-07-29T10:21:57;5.40;;;2.00;;
1691;SDS011;843;52.054;8.552;2022-07-29T10:24:26;3.00;;;1.63;;
1691;SDS011;843;52.054;8.552;2022-07-29T10:26:54;4.60;;;2.10;;
1691;SDS011;843;52.054;8.552;2022-07-29T10:29:22;4.97;;;2.20;;
1691;SDS011;843;52.054;8.552;2022-07-29T10:31:51;5.50;;;2.60;;
1691;SDS011;843;52.054;8.552;2022-07-29T10:34:36;2.53;;;1.47;;
1691;SDS011;843;52.054;8.552;2022-07-29T10:37:17;4.33;;;2.37;;
1691;SDS011;843;52.054;8.552;2022-07-29T10:39:52;5.60;;;2.47;;
1691;SDS011;843;52.054;8.552;2022-07-29T10:42:22;6.97;;;3.20;;
1691;SDS011;843;52.054;8.552;2022-07-29T10:44:49;5.37;;;3.23;;
1691;SDS011;843;52.054;8.552;2022-07-29T10:47:21;6.60;;;3.30;;
1691;SDS011;843;52.054;8.552;2022-07-29T10:49:55;6.00;;;3.30;;
1691;SDS011;843;52.054;8.552;2022-07-29T10:52:23;7.40;;;3.00;;
1691;SDS011;843;52.054;8.552;2022-07-29T10:54:54;4.40;;;2.80;;
1691;SDS011;843;52.054;8.552;2022-07-29T10:57:24;4.17;;;2.80;;
1691;SDS011;843;52.054;8.552;2022-07-29T11:02:57;5.77;;;2.80;;
1691;SDS011;843;52.054;8.552;2022-07-29T11:05:25;4.93;;;2.53;;
1691;SDS011;843;52.054;8.552;2022-07-29T11:10:46;3.13;;;2.60;;
1691;SDS011;843;52.054;8.552;2022-07-29T11:16:15;4.20;;;2.73;;
1691;SDS011;843;52.054;8.552;2022-07-29T11:21:46;6.60;;;2.60;;
1691;SDS011;843;52.054;8.552;2022-07-29T11:24:15;5.57;;;2.70;;
1691;SDS011;843;52.054;8.552;2022-07-29T11:26:45;13.37;;;3.20;;
1691;SDS011;843;52.054;8.552;2022-07-29T11:29:16;5.27;;;3.10;;
1691;SDS011;843;52.054;8.552;2022-07-29T11:31:48;5.07;;;2.60;;
1691;SDS011;843;52.054;8.552;2022-07-29T11:34:22;5.77;;;2.57;;
1691;SDS011;843;52.054;8.552;2022-07-29T11:39:44;5.87;;;3.07;;
1691;SDS011;843;52.054;8.552;2022-07-29T11:45:06;3.40;;;2.50;;
1691;SDS011;843;52.054;8.552;2022-07-29T11:47:35;3.20;;;2.50;;
1691;SDS011;843;52.054;8.552;2022-07-29T11:50:03;6.60;;;2.67;;
1691;SDS011;843;52.054;8.552;2022-07-29T11:52:32;4.27;;;2.67;;
1691;SDS011;843;52.054;8.552;2022-07-29T11:55:02;4.77;;;2.80;;
1691;SDS011;843;52.054;8.552;2022-07-29T11:57:31;7.60;;;2.80;;
1691;SDS011;843;52.054;8.552;2022-07-29T12:00:02;5.20;;;2.87;;
1691;SDS011;843;52.054;8.552;2022-07-29T12:02:40;7.13;;;2.93;;
1691;SDS011;843;52.054;8.552;2022-07-29T12:05:08;11.57;;;2.90;;
1691;SDS011;843;52.054;8.552;2022-07-29T12:07:36;3.60;;;2.43;;
1691;SDS011;843;52.054;8.552;2022-07-29T12:10:04;6.87;;;3.07;;
1691;SDS011;843;52.054;8.552;2022-07-29T12:12:32;5.53;;;2.57;;
1691;SDS011;843;52.054;8.552;2022-07-29T12:15:11;4.27;;;2.70;;
1691;SDS011;843;52.054;8.552;2022-07-29T12:17:39;5.60;;;2.50;;
1691;SDS011;843;52.054;8.552;2022-07-29T12:20:06;5.80;;;2.60;;
1691;SDS011;843;52.054;8.552;2022-07-29T12:22:34;5.90;;;2.63;;
1691;SDS011;843;52.054;8.552;2022-07-29T12:25:03;3.87;;;2.40;;
1691;SDS011;843;52.054;8.552;2022-07-29T12:27:32;4.07;;;2.50;;
1691;SDS011;843;52.054;8.552;2022-07-29T12:29:59;10.27;;;2.23;;
1691;SDS011;843;52.054;8.552;2022-07-29T12:32:33;5.83;;;2.60;;
1691;SDS011;843;52.054;8.552;2022-07-29T12:35:02;5.70;;;2.50;;
1691;SDS011;843;52.054;8.552;2022-07-29T12:37:29;5.67;;;2.50;;
1691;SDS011;843;52.054;8.552;2022-07-29T12:39:57;3.17;;;2.57;;
1691;SDS011;843;52.054;8.552;2022-07-29T12:42:24;5.37;;;2.40;;
1691;SDS011;843;52.054;8.552;2022-07-29T12:44:51;6.53;;;2.90;;
1691;SDS011;843;52.054;8.552;2022-07-29T12:47:18;4.23;;;2.30;;
1691;SDS011;843;52.054;8.552;2022-07-29T12:49:48;4.97;;;2.87;;
1691;SDS011;843;52.054;8.552;2022-07-29T12:52:28;2.67;;;2.00;;
1691;SDS011;843;52.054;8.552;2022-07-29T12:54:55;4.73;;;2.33;;
1691;SDS011;843;52.054;8.552;2022-07-29T12:57:23;5.80;;;2.47;;
1691;SDS011;843;52.054;8.552;2022-07-29T12:59:59;5.40;;;2.97;;
1691;SDS011;843;52.054;8.552;2022-07-29T13:02:30;5.37;;;2.70;;
1691;SDS011;843;52.054;8.552;2022-07-29T13:04:59;7.03;;;2.80;;
1691;SDS011;843;52.054;8.552;2022-07-29T13:07:27;7.10;;;2.70;;
1691;SDS011;843;52.054;8.552;2022-07-29T13:09:57;8.87;;;3.50;;
1691;SDS011;843;52.054;8.552;2022-07-29T13:12:36;4.33;;;2.80;;
1691;SDS011;843;52.054;8.552;2022-07-29T13:15:11;6.13;;;3.27;;
1691;SDS011;843;52.054;8.552;2022-07-29T13:17:40;7.80;;;2.80;;
1691;SDS011;843;52.054;8.552;2022-07-29T13:20:10;5.27;;;2.70;;
1691;SDS011;843;52.054;8.552;2022-07-29T13:22:39;7.13;;;3.03;;
1691;SDS011;843;52.054;8.552;2022-07-29T13:25:07;6.00;;;3.03;;
1691;SDS011;843;52.054;8.552;2022-07-29T13:27:36;6.17;;;2.80;;
1691;SDS011;843;52.054;8.552;2022-07-29T13:30:05;6.47;;;2.90;;
1691;SDS011;843;52.054;8.552;2022-07-29T13:32:33;6.93;;;2.80;;
1691;SDS011;843;52.054;8.552;2022-07-29T13:35:02;4.90;;;2.50;;
1691;SDS011;843;52.054;8.552;2022-07-29T13:37:32;7.20;;;3.20;;
1691;SDS011;843;52.054;8.552;2022-07-29T13:40:00;6.60;;;2.70;;
1691;SDS011;843;52.054;8.552;2022-07-29T13:42:28;3.83;;;2.90;;
1691;SDS011;843;52.054;8.552;2022-07-29T13:44:54;5.83;;;3.00;;
1691;SDS011;843;52.054;8.552;2022-07-29T13:47:21;3.97;;;2.60;;
1691;SDS011;843;52.054;8.552;2022-07-29T13:49:48;6.20;;;2.80;;
1691;SDS011;843;52.054;8.552;2022-07-29T13:52:15;8.30;;;3.37;;
1691;SDS011;843;52.054;8.552;2022-07-29T13:54:43;3.33;;;2.87;;
1691;SDS011;843;52.054;8.552;2022-07-29T13:57:10;10.53;;;2.77;;
1691;SDS011;843;52.054;8.552;2022-07-29T13:59:38;4.43;;;3.23;;
1691;SDS011;843;52.054;8.552;2022-07-29T14:02:05;5.10;;;2.80;;
1691;SDS011;843;52.054;8.552;2022-07-29T14:04:32;6.30;;;3.30;;
1691;SDS011;843;52.054;8.552;2022-07-29T14:06:59;7.70;;;3.10;;
1691;SDS011;843;52.054;8.552;2022-07-29T14:09:26;3.70;;;2.90;;
1691;SDS011;843;52.054;8.552;2022-07-29T14:11:54;9.33;;;2.80;;
1691;SDS011;843;52.054;8.552;2022-07-29T14:14:21;2.83;;;2.53;;
1691;SDS011;843;52.054;8.552;2022-07-29T14:16:48;4.37;;;2.83;;
1691;SDS011;843;52.054;8.552;2022-07-29T14:19:14;3.73;;;2.57;;
1691;SDS011;843;52.054;8.552;2022-07-29T14:21:41;6.33;;;2.70;;
1691;SDS011;843;52.054;8.552;2022-07-29T14:24:08;5.40;;;2.90;;
1691;SDS011;843;52.054;8.552;2022-07-29T14:26:35;7.80;;;2.70;;
1691;SDS011;843;52.054;8.552;2022-07-29T14:29:03;4.60;;;2.40;;
1691;SDS011;843;52.054;8.552;2022-07-29T14:31:30;7.90;;;2.70;;
1691;SDS011;843;52.054;8.552;2022-07-29T14:33:56;9.57;;;2.70;;
1691;SDS011;843;52.054;8.552;2022-07-29T14:36:23;4.40;;;2.30;;
1691;SDS011;843;52.054;8.552;2022-07-29T14:38:50;3.77;;;2.43;;
1691;SDS011;843;52.054;8.552;2022-07-29T14:41:17;5.67;;;2.90;;
1691;SDS011;843;52.054;8.552;2022-07-29T14:43:43;6.20;;;3.40;;
1691;SDS011;843;52.054;8.552;2022-07-29T14:46:12;5.73;;;2.50;;
1691;SDS011;843;52.054;8.552;2022-07-29T14:48:38;4.57;;;2.30;;
1691;SDS011;843;52.054;8.552;2022-07-29T14:51:05;7.60;;;2.40;;
1691;SDS011;843;52.054;8.552;2022-07-29T14:53:32;4.93;;;2.47;;
1691;SDS011;843;52.054;8.552;2022-07-29T14:55:59;5.00;;;2.37;;
1691;SDS011;843;52.054;8.552;2022-07-29T14:58:26;8.50;;;2.30;;
1691;SDS011;843;52.054;8.552;2022-07-29T15:00:53;4.67;;;2.60;;
1691;SDS011;843;52.054;8.552;2022-07-29T15:03:22;4.20;;;2.40;;
1691;SDS011;843;52.054;8.552;2022-07-29T15:05:50;4.20;;;2.67;;
1691;SDS011;843;52.054;8.552;2022-07-29T15:08:17;5.63;;;2.43;;
1691;SDS011;843;52.054;8.552;2022-07-29T15:10:43;3.33;;;2.20;;
1691;SDS011;843;52.054;8.552;2022-07-29T15:13:10;3.90;;;2.50;;
1691;SDS011;843;52.054;8.552;2022-07-29T15:15:37;5.33;;;2.37;;
1691;SDS011;843;52.054;8.552;2022-07-29T15:18:06;3.13;;;2.20;;
1691;SDS011;843;52.054;8.552;2022-07-29T15:20:35;7.30;;;2.53;;
1691;SDS011;843;52.054;8.552;2022-07-29T15:23:02;3.47;;;2.10;;
1691;SDS011;843;52.054;8.552;2022-07-29T15:25:29;4.50;;;2.77;;
1691;SDS011;843;52.054;8.552;2022-07-29T15:27:58;11.57;;;3.33;;
1691;SDS011;843;52.054;8.552;2022-07-29T15:30:29;8.17;;;2.67;;
1691;SDS011;843;52.054;8.552;2022-07-29T15:32:56;6.00;;;2.90;;
1691;SDS011;843;52.054;8.552;2022-07-29T15:35:23;6.40;;;2.83;;
1691;SDS011;843;52.054;8.552;2022-07-29T15:37:52;5.80;;;2.80;;
1691;SDS011;843;52.054;8.552;2022-07-29T15:40:19;5.80;;;2.60;;
1691;SDS011;843;52.054;8.552;2022-07-29T15:42:46;7.70;;;2.93;;
1691;SDS011;843;52.054;8.552;2022-07-29T15:45:13;3.93;;;2.50;;
1691;SDS011;843;52.054;8.552;2022-07-29T15:47:40;6.37;;;2.60;;
1691;SDS011;843;52.054;8.552;2022-07-29T15:50:07;9.90;;;2.60;;
1691;SDS011;843;52.054;8.552;2022-07-29T15:52:39;6.33;;;4.13;;
1691;SDS011;843;52.054;8.552;2022-07-29T15:55:08;9.17;;;3.20;;